Deatsville, Kentucky
Current Conditions -  °F | °C
As of 6:56 PM on Sunday 21 Dec 2014 (Local Time) from KSDF Reporting Station
Scattered Clouds Scattered Clouds  
Wind Chill: 33°   Ceiling: Unl
Heat Index: 38°   Visibility: 10mi
Dew Point: 29°   Wind: 6mph
Humidity: 70%   Direction: 70°ENE
Pressure: 30.14"   Gusts: NA
Location:  37.9212°N, 85.4864°W
Report Text: KSDF 212356Z 07005KT 10SM SCT240 03/M02 A3014 RMK AO2 SLP210 T00331017 10067 20033 55004
Loading
Personal Weather Stations






























Interactive Weather Map New forecast layout! Learn more

10-Day Weather Forecast

Advertisements
Track Severe Weather on mobile